Time;durP1;ratioP1;P1;durP2;ratioP2;P2;SDS_P1;SDS_P2;PMS_P1;PMS_P2;Temp;Humidity;BMP_temperature;BMP_pressure;BME280_temperature;BME280_humidity;BME280_pressure;Samples;Min_cycle;Max_cycle;Signal;HPM_P1;HPM_P2
2023/03/28 00:02:09;;;;;;;8.83;4.00;;;-0.80;99.90;;;;;;4937744;29;20201;-72
2023/03/28 00:04:36;;;;;;;7.13;3.83;;;-0.80;99.90;;;;;;4954694;28;20561;-72
2023/03/28 00:07:04;;;;;;;9.03;4.73;;;-0.80;99.90;;;;;;4937218;29;20217;-72
2023/03/28 00:09:31;;;;;;;10.93;4.50;;;-0.70;99.90;;;;;;4937321;29;20213;-71
2023/03/28 00:11:58;;;;;;;8.03;4.33;;;-1.00;99.90;;;;;;4954484;29;20251;-72
2023/03/28 00:14:25;;;;;;;11.80;5.00;;;-1.10;99.90;;;;;;4953198;29;20225;-72
2023/03/28 00:16:52;;;;;;;11.43;5.10;;;-1.10;99.90;;;;;;4953457;29;20200;-70
2023/03/28 00:19:20;;;;;;;9.83;4.90;;;-1.00;99.90;;;;;;4937258;29;20201;-71
2023/03/28 00:21:50;;;;;;;11.83;5.30;;;-0.90;99.90;;;;;;4952921;29;20196;-70
2023/03/28 00:24:20;;;;;;;9.77;5.30;;;-0.80;99.90;;;;;;4953307;29;20200;-75
2023/03/28 00:26:53;;;;;;;12.20;5.27;;;-0.90;99.90;;;;;;4953415;28;20192;-74
2023/03/28 00:29:21;;;;;;;14.50;5.43;;;-0.90;99.90;;;;;;4937473;29;20203;-73
2023/03/28 00:31:49;;;;;;;9.87;5.13;;;-0.90;99.90;;;;;;4937213;29;20332;-76
2023/03/28 00:34:17;;;;;;;9.77;5.47;;;-1.00;99.90;;;;;;4954145;29;20595;-74
2023/03/28 00:36:44;;;;;;;13.20;5.80;;;-1.00;99.90;;;;;;4932406;29;20354;-72
2023/03/28 00:39:12;;;;;;;12.63;5.87;;;-1.00;99.90;;;;;;4936723;29;20592;-76
2023/03/28 00:41:41;;;;;;;12.03;6.00;;;-1.10;99.90;;;;;;4936821;29;20241;-72
2023/03/28 00:44:44;;;;;;;11.57;5.90;;;-1.20;99.90;;;;;;4936796;29;20200;-73
2023/03/28 00:47:17;;;;;;;14.23;5.93;;;-1.10;99.90;;;;;;4954215;29;20206;-72
2023/03/28 00:49:45;;;;;;;10.07;5.23;;;-1.10;99.90;;;;;;4937027;29;20251;-72
2023/03/28 00:52:14;;;;;;;13.53;5.80;;;-1.00;99.90;;;;;;4936712;29;20310;-72
2023/03/28 00:54:41;;;;;;;12.50;5.43;;;-0.90;99.90;;;;;;4936880;29;20288;-72
2023/03/28 00:57:09;;;;;;;13.40;5.57;;;-1.10;99.90;;;;;;4937354;29;20220;-74
2023/03/28 00:59:37;;;;;;;12.37;5.70;;;-1.00;99.90;;;;;;4953619;29;20192;-73
2023/03/28 01:02:05;;;;;;;13.47;5.67;;;-1.10;99.90;;;;;;4936766;29;20208;-74
2023/03/28 01:04:45;;;;;;;12.20;5.77;;;-1.10;99.90;;;;;;4953858;29;20200;-76
2023/03/28 01:07:12;;;;;;;11.13;5.77;;;-1.20;99.90;;;;;;4936814;29;20655;-74
2023/03/28 01:09:42;;;;;;;13.27;6.00;;;-1.20;99.90;;;;;;4952416;29;20200;-74
2023/03/28 01:12:10;;;;;;;11.13;6.00;;;-1.30;99.90;;;;;;4951797;29;20254;-73
2023/03/28 01:14:38;;;;;;;14.33;6.57;;;-1.30;99.90;;;;;;4936392;29;20234;-73
2023/03/28 01:17:06;;;;;;;13.03;5.53;;;-1.40;99.90;;;;;;4953619;29;20192;-73
2023/03/28 01:19:49;;;;;;;13.20;6.60;;;-1.50;99.90;;;;;;4952882;29;20577;-73
2023/03/28 01:22:40;;;;;;;16.37;6.77;;;-1.50;99.90;;;;;;4953440;29;20244;-72
2023/03/28 01:25:37;;;;;;;15.20;7.00;;;-1.50;99.90;;;;;;4936493;29;20203;-74
2023/03/28 01:28:30;;;;;;;17.53;7.50;;;-1.50;99.90;;;;;;4936212;29;20665;-74
2023/03/28 01:31:25;;;;;;;13.73;6.37;;;-1.40;99.90;;;;;;4936172;29;20570;-74
2023/03/28 01:34:35;;;;;;;16.13;7.23;;;-1.40;99.90;;;;;;4936654;29;20227;-75
2023/03/28 01:37:22;;;;;;;15.73;7.17;;;-1.50;99.90;;;;;;4936054;29;20200;-75
2023/03/28 01:40:18;;;;;;;13.77;7.17;;;-1.50;99.90;;;;;;4937003;29;20190;-73
2023/03/28 01:42:58;;;;;;;15.23;7.87;;;-1.50;99.90;;;;;;4953315;29;20226;-74
2023/03/28 01:45:47;;;;;;;18.47;7.40;;;-1.50;99.90;;;;;;4936180;29;20219;-75
2023/03/28 01:48:31;;;;;;;17.00;7.73;;;-1.50;99.90;;;;;;4936569;29;20200;-76
2023/03/28 01:51:08;;;;;;;13.87;7.13;;;-1.60;99.90;;;;;;4953079;29;20246;-73
2023/03/28 01:53:42;;;;;;;13.73;7.10;;;-1.60;99.90;;;;;;4935943;29;20613;-73
2023/03/28 01:56:39;;;;;;;16.03;7.47;;;-1.50;99.90;;;;;;4953035;28;20202;-72
2023/03/28 01:59:21;;;;;;;14.63;6.87;;;-1.50;99.90;;;;;;4953485;29;20194;-73
2023/03/28 02:01:52;;;;;;;16.83;7.63;;;-1.50;99.90;;;;;;4952044;29;20202;-74
2023/03/28 02:04:22;;;;;;;15.40;7.60;;;-1.60;99.90;;;;;;4936385;29;20283;-71
2023/03/28 02:06:52;;;;;;;16.60;7.70;;;-1.60;99.90;;;;;;4916959;29;20283;-74
2023/03/28 02:09:23;;;;;;;19.73;8.33;;;-1.70;99.90;;;;;;4945062;29;20233;-74
2023/03/28 02:11:55;;;;;;;18.70;8.73;;;-1.70;99.90;;;;;;4953072;28;20236;-73
2023/03/28 02:14:26;;;;;;;16.07;8.47;;;-1.80;99.90;;;;;;4936086;29;20229;-74
2023/03/28 02:16:59;;;;;;;14.20;8.00;;;-1.80;99.90;;;;;;4952880;29;20534;-73
2023/03/28 02:19:27;;;;;;;18.07;7.43;;;-1.70;99.90;;;;;;4951933;29;20717;-75
2023/03/28 02:22:06;;;;;;;17.30;7.57;;;-1.80;99.90;;;;;;4951637;29;20212;-75
2023/03/28 02:24:32;;;;;;;17.30;7.33;;;-1.80;99.90;;;;;;4953018;28;20194;-73
2023/03/28 02:27:00;;;;;;;15.33;7.43;;;-1.80;99.90;;;;;;4953128;29;20203;-75
2023/03/28 02:29:29;;;;;;;16.23;7.67;;;-1.80;99.90;;;;;;4935780;29;20295;-74
2023/03/28 02:31:56;;;;;;;14.13;7.13;;;-1.80;99.90;;;;;;4952999;29;20193;-74
2023/03/28 02:34:23;;;;;;;15.30;7.67;;;-1.90;99.90;;;;;;4935645;29;20230;-73
2023/03/28 02:37:10;;;;;;;14.93;7.17;;;-1.80;99.90;;;;;;4953039;28;20234;-75
2023/03/28 02:40:06;;;;;;;14.20;7.20;;;-1.80;99.90;;;;;;4936125;29;20208;-74
2023/03/28 02:42:52;;;;;;;15.80;7.20;;;-1.80;99.90;;;;;;4933416;29;20212;-72
2023/03/28 02:45:59;;;;;;;14.07;6.73;;;-1.90;99.90;;;;;;4935554;29;20294;-72
2023/03/28 02:48:29;;;;;;;16.23;7.53;;;-1.90;99.90;;;;;;4951534;28;20239;-73
2023/03/28 02:51:33;;;;;;;15.87;6.67;;;-1.90;99.90;;;;;;4939401;29;20709;-75
2023/03/28 02:54:21;;;;;;;17.57;7.40;;;-1.90;99.90;;;;;;4956671;28;20220;-71
2023/03/28 02:57:02;;;;;;;19.37;8.17;;;-2.00;99.90;;;;;;4938425;29;20565;-72
2023/03/28 02:59:56;;;;;;;16.60;7.53;;;-2.00;99.90;;;;;;4938799;29;20303;-74
2023/03/28 03:02:23;;;;;;;15.90;7.63;;;-2.00;99.90;;;;;;4938300;29;20760;-70
2023/03/28 03:04:50;;;;;;;16.73;7.37;;;-2.00;99.90;;;;;;4930932;29;20201;-75
2023/03/28 03:07:17;;;;;;;16.73;7.67;;;-2.00;99.90;;;;;;4949066;29;20193;-73
2023/03/28 03:09:45;;;;;;;17.23;7.57;;;-2.00;99.90;;;;;;4952959;29;20201;-71
2023/03/28 03:12:13;;;;;;;15.40;6.80;;;-2.00;99.90;;;;;;4954133;28;20234;-73
2023/03/28 03:14:40;;;;;;;15.80;7.07;;;-2.00;99.90;;;;;;4954499;29;20708;-72
2023/03/28 03:17:07;;;;;;;12.60;6.53;;;-2.10;99.90;;;;;;4938298;29;20650;-74
2023/03/28 03:19:35;;;;;;;16.90;6.73;;;-2.00;99.90;;;;;;4938557;29;20215;-72
2023/03/28 03:22:02;;;;;;;14.37;7.57;;;-2.00;99.90;;;;;;4954487;29;20238;-72
2023/03/28 03:24:29;;;;;;;13.90;7.20;;;-2.10;99.90;;;;;;4938152;28;20202;-71
2023/03/28 03:26:56;;;;;;;17.00;7.23;;;-2.10;99.90;;;;;;4955776;28;20718;-72
2023/03/28 03:29:23;;;;;;;13.93;7.03;;;-2.20;99.90;;;;;;4938245;29;20232;-73
2023/03/28 03:31:50;;;;;;;13.73;6.70;;;-2.10;99.90;;;;;;4938443;29;20618;-72
2023/03/28 03:34:17;;;;;;;13.77;7.03;;;-2.20;99.90;;;;;;4938170;29;20215;-71
2023/03/28 03:36:44;;;;;;;13.27;6.83;;;-2.10;99.90;;;;;;4953883;29;20211;-74
2023/03/28 03:39:11;;;;;;;12.97;7.33;;;-2.10;99.90;;;;;;4938070;29;20210;-74
2023/03/28 03:41:38;;;;;;;18.10;7.10;;;-2.10;99.90;;;;;;4955202;29;20196;-73
2023/03/28 03:44:05;;;;;;;14.07;6.70;;;-1.90;99.90;;;;;;4955047;29;20218;-73
2023/03/28 03:46:32;;;;;;;13.07;5.97;;;-2.10;99.90;;;;;;4937982;29;20206;-73
2023/03/28 03:48:59;;;;;;;13.23;6.43;;;-2.10;99.90;;;;;;4938203;29;20593;-73
2023/03/28 03:51:26;;;;;;;14.03;6.70;;;-2.20;99.90;;;;;;4954974;29;20200;-73
2023/03/28 03:53:56;;;;;;;11.10;6.57;;;-2.20;99.90;;;;;;4937467;29;20233;-71
2023/03/28 03:56:23;;;;;;;14.33;6.57;;;-2.20;99.90;;;;;;4938119;29;20219;-75
2023/03/28 03:58:50;;;;;;;13.23;6.20;;;-2.20;99.90;;;;;;4938027;29;20228;-72
2023/03/28 04:01:20;;;;;;;13.83;6.00;;;-2.20;99.90;;;;;;4954819;28;20207;-72
2023/03/28 04:03:47;;;;;;;14.70;6.97;;;-2.10;99.90;;;;;;4952975;29;20211;-70
2023/03/28 04:06:15;;;;;;;15.17;6.13;;;-2.10;99.90;;;;;;4937657;28;20519;-71
2023/03/28 04:08:42;;;;;;;12.37;6.53;;;-2.10;99.90;;;;;;4937626;29;20736;-73
2023/03/28 04:11:09;;;;;;;13.07;6.70;;;-2.00;99.90;;;;;;4955408;28;20211;-74
2023/03/28 04:13:37;;;;;;;14.83;6.60;;;-2.00;99.90;;;;;;4954432;28;20220;-72
2023/03/28 04:16:04;;;;;;;16.40;5.83;;;-1.90;99.90;;;;;;4954865;29;20215;-74
2023/03/28 04:18:32;;;;;;;14.17;6.30;;;-2.00;99.90;;;;;;4954621;29;20196;-73
2023/03/28 04:21:01;;;;;;;13.67;6.40;;;-2.00;99.90;;;;;;4955083;29;20729;-74
2023/03/28 04:23:29;;;;;;;12.57;6.20;;;-2.00;99.90;;;;;;4954581;28;20223;-73
2023/03/28 04:25:56;;;;;;;12.03;5.67;;;-2.10;99.90;;;;;;4954406;28;20194;-77
2023/03/28 04:28:24;;;;;;;13.33;5.90;;;-2.20;99.90;;;;;;4937605;29;20199;-77
2023/03/28 04:30:53;;;;;;;11.13;5.97;;;-2.10;99.90;;;;;;4921684;29;20204;-70
2023/03/28 04:33:24;;;;;;;13.33;6.00;;;-2.20;99.90;;;;;;4937238;29;20295;-76
2023/03/28 04:35:58;;;;;;;12.47;6.20;;;-2.20;99.90;;;;;;4952778;29;20226;-70
2023/03/28 04:38:30;;;;;;;14.30;6.37;;;-2.20;99.90;;;;;;4954111;29;20198;-73
2023/03/28 04:40:58;;;;;;;10.47;5.90;;;-2.10;99.90;;;;;;4953474;29;20590;-73
2023/03/28 04:43:25;;;;;;;13.33;6.27;;;-2.10;99.90;;;;;;4936804;29;20217;-75
2023/03/28 04:45:53;;;;;;;13.80;6.20;;;-2.00;99.90;;;;;;4919437;29;20208;-71
2023/03/28 04:48:21;;;;;;;14.50;6.07;;;-2.10;99.90;;;;;;4905095;29;20277;-71
2023/03/28 04:50:49;;;;;;;10.30;6.00;;;-2.00;99.90;;;;;;4937059;28;20201;-70
2023/03/28 04:53:16;;;;;;;13.10;6.40;;;-1.90;99.90;;;;;;4953870;29;20216;-73
2023/03/28 04:55:49;;;;;;;11.50;6.03;;;-2.00;99.90;;;;;;4937832;29;20296;-75
2023/03/28 04:58:17;;;;;;;12.50;6.03;;;-2.00;99.90;;;;;;4954625;29;20227;-72
2023/03/28 05:00:44;;;;;;;12.60;6.23;;;-1.90;99.90;;;;;;4936157;29;20677;-74
2023/03/28 05:03:21;;;;;;;11.43;5.90;;;-1.90;99.90;;;;;;4954160;28;20284;-72
2023/03/28 05:05:51;;;;;;;12.77;5.90;;;-1.80;99.90;;;;;;4937271;29;20206;-73
2023/03/28 05:08:21;;;;;;;11.60;5.77;;;-1.80;99.90;;;;;;4935689;29;20248;-74
2023/03/28 05:10:48;;;;;;;12.67;6.07;;;-1.70;99.90;;;;;;4918724;29;20209;-74
2023/03/28 05:13:16;;;;;;;13.27;6.17;;;-1.60;99.90;;;;;;4916653;29;20233;-74
2023/03/28 05:15:45;;;;;;;17.97;6.40;;;-1.40;99.90;;;;;;4934128;29;20201;-74
2023/03/28 05:18:13;;;;;;;13.63;5.93;;;-1.20;99.90;;;;;;4917397;29;20585;-75
2023/03/28 05:20:40;;;;;;;13.13;5.40;;;-1.10;99.90;;;;;;4934652;29;20323;-72
2023/03/28 05:23:07;;;;;;;10.43;5.40;;;-1.00;99.90;;;;;;4934521;29;20208;-73
2023/03/28 05:25:35;;;;;;;11.70;5.10;;;-0.90;99.90;;;;;;4919243;29;20685;-74
2023/03/28 05:28:03;;;;;;;11.90;5.50;;;-0.90;99.90;;;;;;4935651;29;20204;-74
2023/03/28 05:30:30;;;;;;;12.17;5.77;;;-0.90;99.90;;;;;;4921008;29;20197;-74
2023/03/28 05:32:58;;;;;;;12.97;6.00;;;-0.80;99.90;;;;;;4936970;29;20208;-71
2023/03/28 05:35:25;;;;;;;13.50;6.17;;;-0.80;99.90;;;;;;4936235;29;20212;-72
2023/03/28 05:37:52;;;;;;;14.63;6.80;;;-0.70;99.90;;;;;;4936333;29;20210;-71
2023/03/28 05:40:19;;;;;;;13.20;6.20;;;-0.70;99.90;;;;;;4933245;29;20539;-72
2023/03/28 05:42:46;;;;;;;16.47;6.67;;;-0.70;99.90;;;;;;4948634;29;20297;-76
2023/03/28 05:45:13;;;;;;;14.33;6.40;;;-0.60;99.90;;;;;;4935172;28;20199;-74
2023/03/28 05:47:40;;;;;;;13.13;6.40;;;-0.60;99.90;;;;;;4952410;29;20250;-79
2023/03/28 05:50:08;;;;;;;15.17;6.37;;;-0.50;99.90;;;;;;4936156;29;20547;-72
2023/03/28 05:52:35;;;;;;;16.13;6.70;;;-0.40;99.90;;;;;;4935908;29;20203;-71
2023/03/28 05:55:02;;;;;;;14.40;6.83;;;-0.30;99.90;;;;;;4953258;29;20660;-71
2023/03/28 05:57:29;;;;;;;17.23;7.10;;;-0.40;99.90;;;;;;4935766;29;20205;-73
2023/03/28 05:59:56;;;;;;;15.83;7.47;;;-0.30;99.90;;;;;;4953406;29;20196;-72
2023/03/28 06:02:23;;;;;;;14.73;7.30;;;-0.40;99.90;;;;;;4951991;29;20200;-72
2023/03/28 06:04:54;;;;;;;17.23;8.20;;;-0.30;99.90;;;;;;4952746;28;20297;-75
2023/03/28 06:07:22;;;;;;;17.03;8.20;;;-0.50;99.90;;;;;;4936277;29;20261;-76
2023/03/28 06:10:08;;;;;;;18.07;8.30;;;-0.30;99.90;;;;;;4954056;29;20634;-76
2023/03/28 06:12:35;;;;;;;17.10;8.67;;;-0.30;99.90;;;;;;4952423;29;20241;-76
2023/03/28 06:15:02;;;;;;;18.27;9.00;;;-0.40;99.90;;;;;;4955091;29;20241;-77
2023/03/28 06:17:29;;;;;;;20.57;9.90;;;-0.30;99.90;;;;;;4946373;29;20265;-75
2023/03/28 06:19:56;;;;;;;17.97;9.33;;;-0.10;99.90;;;;;;4956286;29;20315;-71
2023/03/28 06:22:24;;;;;;;20.27;9.43;;;-0.10;99.90;;;;;;4936353;29;20205;-70
2023/03/28 06:24:51;;;;;;;18.37;10.03;;;-0.10;99.90;;;;;;4955861;28;20202;-71
2023/03/28 06:27:18;;;;;;;20.20;10.40;;;-0.10;99.90;;;;;;4955445;29;20202;-78
2023/03/28 06:29:48;;;;;;;23.97;11.37;;;0.00;99.90;;;;;;4939865;29;20587;-75
2023/03/28 06:32:17;;;;;;;21.07;10.53;;;0.00;99.90;;;;;;4939445;29;20229;-80
2023/03/28 06:34:44;;;;;;;22.73;11.03;;;0.00;99.90;;;;;;4939756;29;20697;-79
2023/03/28 06:37:11;;;;;;;21.50;10.77;;;-0.10;99.90;;;;;;4939607;29;20197;-78
2023/03/28 06:39:40;;;;;;;22.83;11.30;;;0.00;99.90;;;;;;4939387;29;20211;-83
2023/03/28 06:42:08;;;;;;;22.80;11.90;;;0.10;99.90;;;;;;4939536;29;20231;-80
2023/03/28 06:44:35;;;;;;;22.33;11.93;;;0.10;99.90;;;;;;4939407;29;20622;-80
2023/03/28 06:47:07;;;;;;;24.73;12.53;;;0.00;99.90;;;;;;4943228;28;20563;-77
2023/03/28 06:49:37;;;;;;;27.83;12.77;;;0.00;99.90;;;;;;4937140;29;20263;-80
2023/03/28 06:52:04;;;;;;;23.47;12.73;;;0.00;99.90;;;;;;4937235;29;20215;-78
2023/03/28 06:54:33;;;;;;;25.70;12.93;;;0.10;99.90;;;;;;4937392;29;20309;-78
2023/03/28 06:57:00;;;;;;;23.43;12.60;;;0.20;99.90;;;;;;4904333;29;20205;-77
2023/03/28 06:59:28;;;;;;;26.43;13.60;;;0.10;99.90;;;;;;4937331;29;20187;-74
2023/03/28 07:01:55;;;;;;;23.40;12.70;;;0.30;99.90;;;;;;4937083;29;20637;-76
2023/03/28 07:04:22;;;;;;;25.63;13.30;;;0.40;99.90;;;;;;4920059;29;20203;-76
2023/03/28 07:06:49;;;;;;;24.13;13.53;;;0.50;99.90;;;;;;4919711;29;20205;-78
2023/03/28 07:09:17;;;;;;;25.57;13.00;;;0.60;99.90;;;;;;4936810;29;20199;-77
2023/03/28 07:11:44;;;;;;;26.67;13.63;;;0.60;99.90;;;;;;4938673;29;20573;-77
2023/03/28 07:14:12;;;;;;;25.57;13.70;;;0.70;99.90;;;;;;4938948;29;20590;-78
2023/03/28 07:16:41;;;;;;;27.80;13.63;;;0.60;99.90;;;;;;4956104;29;20212;-77
2023/03/28 07:19:08;;;;;;;27.57;13.87;;;0.60;99.90;;;;;;4922980;29;20209;-76
2023/03/28 07:21:35;;;;;;;23.40;13.17;;;0.60;99.90;;;;;;4954622;29;20201;-76
2023/03/28 07:24:03;;;;;;;25.10;13.53;;;0.70;99.90;;;;;;4937908;29;20199;-77
2023/03/28 07:26:30;;;;;;;27.93;13.87;;;0.90;99.90;;;;;;4938803;29;20206;-78
2023/03/28 07:28:57;;;;;;;24.10;13.70;;;0.90;99.90;;;;;;4938942;29;20198;-80
2023/03/28 07:31:24;;;;;;;23.90;13.30;;;1.10;99.90;;;;;;4954810;29;20194;-78
2023/03/28 07:33:56;;;;;;;24.60;13.53;;;1.30;99.90;;;;;;4946538;29;20210;-77
2023/03/28 07:36:26;;;;;;;24.63;13.50;;;1.20;99.90;;;;;;4938153;29;20735;-80
2023/03/28 07:38:53;;;;;;;24.67;12.70;;;1.20;99.90;;;;;;4957329;29;20216;-76
2023/03/28 07:41:23;;;;;;;23.53;12.33;;;1.10;99.90;;;;;;4923869;29;20727;-78
2023/03/28 07:43:50;;;;;;;21.80;11.87;;;1.20;99.90;;;;;;4936161;29;20541;-78
2023/03/28 07:46:19;;;;;;;20.97;11.93;;;1.20;99.90;;;;;;4931980;29;20675;-78
2023/03/28 07:48:46;;;;;;;25.47;12.00;;;1.20;99.90;;;;;;4955664;29;20193;-79
2023/03/28 07:51:14;;;;;;;17.67;11.23;;;1.40;99.90;;;;;;4938366;29;20660;-78
2023/03/28 07:53:44;;;;;;;20.17;11.40;;;1.20;99.90;;;;;;4936979;29;20262;-78
2023/03/28 07:56:11;;;;;;;20.47;10.93;;;1.10;99.90;;;;;;4954647;29;20190;-78
2023/03/28 08:06:51;;;;;;;18.67;9.83;;;1.10;99.90;;;;;;4973096;28;20205;-79
2023/03/28 08:09:18;;;;;;;18.53;10.60;;;1.40;99.90;;;;;;4935477;23;20245;-78
2023/03/28 08:11:47;;;;;;;20.10;10.80;;;1.30;99.90;;;;;;4933697;29;20211;-78
2023/03/28 08:14:16;;;;;;;16.70;9.60;;;1.40;99.90;;;;;;4935082;29;20234;-79
2023/03/28 08:16:45;;;;;;;17.10;9.93;;;1.70;99.90;;;;;;4935285;29;20238;-79
2023/03/28 08:19:12;;;;;;;14.60;9.33;;;1.80;99.90;;;;;;4942149;29;20270;-79
2023/03/28 08:21:42;;;;;;;18.53;9.37;;;1.80;99.90;;;;;;4971230;23;20552;-77
2023/03/28 08:24:55;;;;;;;15.90;9.07;;;1.90;99.90;;;;;;4902237;29;20211;-77
2023/03/28 08:36:13;;;;;;;12.17;7.10;;;2.40;99.90;;;;;;5066061;23;20240;-78
2023/03/28 08:38:41;;;;;;;15.17;6.93;;;2.70;99.90;;;;;;4935053;29;20665;-78
2023/03/28 08:41:17;;;;;;;11.40;7.13;;;2.70;99.90;;;;;;4937009;29;20191;-78
2023/03/28 08:43:52;;;;;;;11.03;7.10;;;2.80;99.90;;;;;;4930975;29;20195;-78
2023/03/28 08:46:22;;;;;;;12.97;6.80;;;2.90;99.90;;;;;;4936001;29;20660;-77
2023/03/28 08:48:51;;;;;;;12.87;6.50;;;3.20;99.90;;;;;;4937003;29;20233;-78
2023/03/28 08:51:21;;;;;;;11.57;6.50;;;3.70;99.90;;;;;;4937266;29;20286;-80
2023/03/28 08:54:21;;;;;;;12.20;6.27;;;4.00;99.90;;;;;;4936866;29;20306;-78
2023/03/28 08:56:51;;;;;;;8.43;5.73;;;4.30;99.90;;;;;;4930348;29;20209;-77
2023/03/28 08:59:25;;;;;;;9.30;5.60;;;5.10;99.90;;;;;;4954285;29;20268;-79
2023/03/28 09:01:52;;;;;;;7.07;5.03;;;5.30;99.90;;;;;;4936626;29;20230;-76
2023/03/28 09:04:33;;;;;;;7.33;5.10;;;5.40;99.90;;;;;;4936697;29;20552;-78
2023/03/28 09:07:11;;;;;;;6.53;4.17;;;5.60;99.90;;;;;;4953824;29;20280;-77
2023/03/28 09:09:43;;;;;;;6.90;3.83;;;5.60;99.90;;;;;;4953871;29;20208;-78
2023/03/28 09:12:52;;;;;;;4.97;3.47;;;5.50;99.90;;;;;;4936787;29;20205;-77
2023/03/28 09:15:22;;;;;;;5.50;3.57;;;5.20;99.90;;;;;;4841626;29;20239;-78
2023/03/28 09:18:18;;;;;;;5.43;3.47;;;4.40;99.90;;;;;;4857079;29;20220;-77
2023/03/28 09:20:56;;;;;;;6.97;3.57;;;4.30;99.90;;;;;;4830523;29;20247;-78
2023/03/28 09:23:44;;;;;;;7.37;3.70;;;4.00;99.90;;;;;;4841594;29;20267;-76
2023/03/28 09:26:16;;;;;;;4.90;2.97;;;4.20;99.90;;;;;;4841867;29;20212;-77
2023/03/28 09:29:03;;;;;;;5.80;3.40;;;4.40;99.90;;;;;;4841654;29;20209;-76
2023/03/28 09:31:35;;;;;;;5.43;3.33;;;4.20;99.90;;;;;;4841534;29;20209;-77
2023/03/28 09:34:05;;;;;;;5.67;3.20;;;3.60;99.90;;;;;;4837838;29;20201;-77
2023/03/28 09:36:42;;;;;;;5.57;3.70;;;3.30;99.90;;;;;;4841602;29;20205;-76
2023/03/28 09:39:32;;;;;;;8.77;5.17;;;2.80;99.90;;;;;;4856428;29;20203;-80
2023/03/28 09:42:06;;;;;;;9.40;6.20;;;1.40;99.90;;;;;;4841761;29;20267;-79
2023/03/28 09:44:46;;;;;;;11.63;7.17;;;1.00;99.90;;;;;;4843355;29;20228;-78
2023/03/28 09:47:21;;;;;;;12.60;7.97;;;0.70;99.90;;;;;;4857017;29;20299;-80
2023/03/28 09:49:48;;;;;;;15.63;8.53;;;0.50;99.90;;;;;;4842337;29;20201;-79
2023/03/28 09:52:25;;;;;;;14.47;8.93;;;0.60;99.90;;;;;;4917512;29;20201;-81
2023/03/28 09:54:53;;;;;;;18.60;10.10;;;0.50;99.90;;;;;;4916972;29;20229;-79
2023/03/28 09:57:20;;;;;;;16.00;9.43;;;0.50;99.90;;;;;;4917122;29;20202;-79
2023/03/28 09:59:47;;;;;;;17.13;9.93;;;0.60;99.90;;;;;;4938072;29;20197;-80
2023/03/28 10:02:26;;;;;;;19.10;10.63;;;0.70;99.90;;;;;;4921117;29;20209;-81
2023/03/28 10:04:54;;;;;;;18.33;10.80;;;0.80;99.90;;;;;;4937688;29;20202;-79
2023/03/28 10:07:41;;;;;;;18.27;10.47;;;0.90;99.90;;;;;;4920976;29;20221;-79
2023/03/28 10:10:20;;;;;;;16.47;10.10;;;1.00;99.90;;;;;;4920771;29;20262;-78
2023/03/28 10:12:48;;;;;;;16.90;10.40;;;1.10;99.90;;;;;;4917542;29;20191;-77
2023/03/28 10:15:38;;;;;;;16.63;9.70;;;1.30;99.90;;;;;;4918512;29;20238;-76
2023/03/28 10:18:05;;;;;;;16.83;10.23;;;1.30;99.90;;;;;;4901862;29;20207;-75
2023/03/28 10:20:36;;;;;;;17.13;9.73;;;1.40;99.90;;;;;;4901416;29;20285;-77
2023/03/28 10:23:04;;;;;;;18.00;10.37;;;1.30;99.90;;;;;;4936511;29;20199;-78
2023/03/28 10:25:43;;;;;;;22.93;10.90;;;1.30;99.90;;;;;;4920340;29;20208;-77
2023/03/28 10:28:17;;;;;;;17.10;10.67;;;1.10;99.90;;;;;;4901629;29;20641;-75
2023/03/28 10:30:53;;;;;;;19.10;10.40;;;1.20;99.90;;;;;;4928892;29;20201;-78
2023/03/28 10:33:25;;;;;;;17.83;9.97;;;1.10;99.90;;;;;;4931502;29;20187;-76
2023/03/28 10:36:01;;;;;;;15.83;9.50;;;1.00;99.90;;;;;;4919962;29;20232;-77
2023/03/28 10:38:36;;;;;;;13.57;7.83;;;1.10;99.90;;;;;;4937288;29;20252;-76
2023/03/28 10:41:11;;;;;;;11.93;6.07;;;1.10;99.90;;;;;;4941528;29;20732;-76
2023/03/28 10:43:40;;;;;;;10.77;6.13;;;1.10;99.90;;;;;;4936419;29;20225;-78
2023/03/28 10:46:13;;;;;;;9.17;5.57;;;1.30;99.90;;;;;;4938189;29;20204;-75
2023/03/28 10:48:44;;;;;;;7.50;4.47;;;1.30;99.90;;;;;;4936126;29;20205;-76
2023/03/28 10:51:20;;;;;;;7.80;4.13;;;1.20;99.90;;;;;;4930694;29;20191;-75
2023/03/28 10:54:22;;;;;;;5.23;3.90;;;1.00;99.90;;;;;;4917472;29;20908;-76
2023/03/28 10:56:55;;;;;;;5.60;4.13;;;1.00;99.90;;;;;;4934718;29;20194;-76
2023/03/28 10:59:28;;;;;;;4.67;3.60;;;1.00;99.90;;;;;;4934842;29;20333;-77
2023/03/28 11:02:16;;;;;;;4.80;3.60;;;1.00;99.90;;;;;;4937064;29;20194;-75
2023/03/28 11:05:13;;;;;;;5.87;3.80;;;1.00;99.90;;;;;;4919595;29;20300;-75
2023/03/28 11:07:52;;;;;;;5.57;3.93;;;1.10;99.90;;;;;;4904465;29;20281;-75
2023/03/28 11:10:33;;;;;;;5.40;3.50;;;1.10;99.90;;;;;;4937027;29;20300;-76
2023/03/28 11:13:20;;;;;;;5.60;3.73;;;1.00;99.90;;;;;;4935014;29;20197;-76
2023/03/28 11:15:59;;;;;;;5.37;3.53;;;1.10;99.90;;;;;;4935242;29;20214;-75
2023/03/28 11:18:57;;;;;;;5.50;3.73;;;1.10;99.90;;;;;;4937479;29;20206;-81
2023/03/28 11:21:47;;;;;;;4.97;3.60;;;1.20;99.90;;;;;;4955939;29;20660;-76
2023/03/28 11:24:32;;;;;;;5.30;3.70;;;1.30;99.90;;;;;;4956102;29;20215;-75
2023/03/28 11:27:17;;;;;;;5.00;3.73;;;1.30;99.90;;;;;;4938935;29;20201;-77
2023/03/28 11:29:52;;;;;;;4.87;3.60;;;1.40;99.90;;;;;;4955713;29;20664;-76
2023/03/28 11:32:36;;;;;;;4.70;3.10;;;1.30;99.90;;;;;;4939037;29;20209;-77
2023/03/28 11:35:30;;;;;;;4.87;2.90;;;1.40;99.90;;;;;;4958243;29;20232;-77
2023/03/28 11:38:09;;;;;;;3.63;2.67;;;1.40;99.90;;;;;;4938755;29;20255;-78
2023/03/28 11:40:36;;;;;;;2.73;2.30;;;1.20;99.90;;;;;;4940389;29;20755;-76
2023/03/28 11:43:06;;;;;;;4.17;2.23;;;1.10;99.90;;;;;;4955963;29;20197;-76
2023/03/28 11:45:46;;;;;;;3.60;2.47;;;1.10;99.90;;;;;;4955645;29;20186;-80
2023/03/28 11:48:24;;;;;;;3.53;2.20;;;1.10;99.90;;;;;;4955675;29;20198;-76
2023/03/28 11:51:14;;;;;;;2.90;1.93;;;1.10;99.90;;;;;;4930953;29;20633;-75
2023/03/28 11:54:00;;;;;;;2.27;2.07;;;1.00;99.90;;;;;;4919257;29;20210;-83
2023/03/28 11:56:39;;;;;;;3.53;2.10;;;1.10;99.90;;;;;;4930621;29;20217;-78
2023/03/28 11:59:13;;;;;;;3.07;1.90;;;1.20;99.90;;;;;;4947840;29;20540;-73
2023/03/28 12:01:46;;;;;;;3.53;2.27;;;1.60;99.90;;;;;;4934886;29;20647;-77
2023/03/28 12:04:19;;;;;;;2.90;2.20;;;1.60;99.90;;;;;;4937763;29;20573;-76
2023/03/28 12:06:59;;;;;;;3.30;2.30;;;1.60;99.90;;;;;;4953558;28;20281;-75
2023/03/28 12:09:43;;;;;;;3.43;2.10;;;1.60;99.90;;;;;;4937447;29;20726;-81
2023/03/28 12:12:20;;;;;;;2.80;2.00;;;1.70;99.90;;;;;;4937788;29;20186;-79
2023/03/28 12:15:12;;;;;;;3.23;1.90;;;1.60;99.90;;;;;;4955005;29;20209;-79
2023/03/28 12:18:05;;;;;;;2.57;2.00;;;1.70;99.90;;;;;;4937656;29;20690;-71
2023/03/28 12:20:42;;;;;;;3.60;2.17;;;1.70;99.90;;;;;;4936619;28;20204;-75
2023/03/28 12:23:25;;;;;;;2.93;2.00;;;1.60;99.90;;;;;;4948132;29;20186;-82
2023/03/28 12:26:18;;;;;;;2.87;2.00;;;1.80;99.90;;;;;;4948204;29;20202;-80
2023/03/28 12:28:50;;;;;;;3.00;1.90;;;1.70;99.90;;;;;;4939182;29;20204;-74
2023/03/28 12:31:27;;;;;;;5.30;2.13;;;1.90;99.90;;;;;;4945784;29;20232;-76
2023/03/28 12:34:11;;;;;;;2.73;2.03;;;1.80;99.90;;;;;;4958351;28;20266;-76
2023/03/28 12:36:56;;;;;;;3.17;2.10;;;2.00;99.90;;;;;;4954766;29;20213;-78
2023/03/28 12:40:07;;;;;;;3.33;2.20;;;2.40;99.90;;;;;;4936860;29;20209;-80
2023/03/28 12:42:43;;;;;;;3.70;2.20;;;2.50;99.90;;;;;;4918319;29;20368;-81
2023/03/28 12:45:38;;;;;;;3.67;2.20;;;2.30;99.90;;;;;;4918572;29;20213;-81
2023/03/28 12:50:55;;;;;;;4.23;2.20;;;2.70;99.90;;;;;;5020867;23;20238;-79
2023/03/28 12:53:23;;;;;;;3.93;2.13;;;2.80;99.90;;;;;;4940492;28;20205;-79
2023/03/28 12:55:54;;;;;;;2.77;2.07;;;2.90;99.90;;;;;;4958573;28;20250;-73
2023/03/28 12:58:27;;;;;;;4.23;1.80;;;2.80;99.90;;;;;;4956820;28;20208;-76
2023/03/28 13:01:14;;;;;;;3.63;2.20;;;2.40;99.90;;;;;;4973684;28;20285;-73
2023/03/28 13:04:02;;;;;;;2.37;1.73;;;2.60;99.90;;;;;;4926109;28;20236;-75
2023/03/28 13:06:56;;;;;;;3.50;2.40;;;2.40;99.90;;;;;;4955783;28;20305;-72
2023/03/28 13:09:50;;;;;;;3.00;2.00;;;2.30;99.90;;;;;;4955946;28;20562;-81
2023/03/28 13:12:38;;;;;;;2.47;1.73;;;2.90;99.90;;;;;;4956152;28;20201;-76
2023/03/28 13:15:11;;;;;;;2.53;1.70;;;3.00;99.90;;;;;;5031817;23;20601;-81
2023/03/28 13:17:46;;;;;;;2.47;1.80;;;3.00;99.90;;;;;;4954177;29;20202;-72
2023/03/28 13:20:16;;;;;;;2.63;1.50;;;4.40;99.90;;;;;;4937666;29;20225;-73
2023/03/28 13:22:53;;;;;;;3.80;1.90;;;5.40;96.00;;;;;;4937061;29;20195;-72
2023/03/28 13:25:25;;;;;;;2.33;1.70;;;5.10;94.40;;;;;;4936607;29;20208;-73
2023/03/28 13:28:16;;;;;;;2.30;1.67;;;4.90;98.90;;;;;;4936402;29;20229;-75
2023/03/28 13:30:45;;;;;;;2.77;1.70;;;3.60;98.80;;;;;;4953928;29;20302;-73
2023/03/28 13:33:26;;;;;;;3.67;2.00;;;3.20;99.90;;;;;;4936191;29;20205;-74
2023/03/28 13:36:02;;;;;;;2.37;1.80;;;3.30;99.90;;;;;;4936099;29;20235;-75
2023/03/28 13:38:29;;;;;;;2.33;1.83;;;3.40;99.90;;;;;;4953760;29;20201;-74